createdAt,value
2017-07-08T09:06:15.946Z,265
2017-07-08T09:07:15.644Z,260
2017-07-08T09:08:15.003Z,260
2017-07-08T09:09:15.007Z,255
2017-07-08T09:10:16.818Z,250
2017-07-08T09:11:15.346Z,245
2017-07-08T09:12:15.691Z,240
2017-07-08T09:13:15.379Z,240
2017-07-08T09:14:14.417Z,235
2017-07-08T09:15:16.147Z,235
2017-07-08T09:16:15.725Z,235
2017-07-08T09:17:15.084Z,235
2017-07-08T09:18:15.111Z,235
2017-07-08T09:19:15.131Z,235
2017-07-08T09:20:17.242Z,220
2017-07-08T09:21:15.415Z,210
2017-07-08T09:22:14.823Z,230
2017-07-08T09:23:14.823Z,225
2017-07-08T09:24:15.460Z,230
2017-07-08T09:25:16.599Z,235
2017-07-08T09:26:15.813Z,235
2017-07-08T09:27:15.495Z,230
2017-07-08T09:28:15.193Z,230
2017-07-08T09:29:15.189Z,235
2017-07-08T09:30:16.087Z,230
2017-07-08T09:31:15.842Z,235
2017-07-08T09:32:15.219Z,235
2017-07-08T09:33:15.550Z,235
2017-07-08T09:34:15.883Z,235
2017-07-08T09:35:17.061Z,235
2017-07-08T09:36:20.922Z,235
2017-07-08T09:37:15.586Z,235
2017-07-08T09:38:15.908Z,230
2017-07-08T09:39:15.596Z,230
2017-07-08T09:40:15.714Z,230
2017-07-08T09:41:15.624Z,240
2017-07-08T09:42:15.630Z,235
2017-07-08T09:43:15.642Z,175
2017-07-08T09:44:15.961Z,170
2017-07-08T09:45:17.345Z,225
2017-07-08T09:46:15.339Z,250
2017-07-08T09:47:15.681Z,260
2017-07-08T09:48:15.662Z,265
2017-07-08T09:49:15.680Z,260
2017-07-08T09:50:16.534Z,210
2017-07-08T09:51:15.500Z,205
2017-07-08T09:52:15.728Z,220
2017-07-08T09:53:15.073Z,225
2017-07-08T09:54:15.404Z,225
2017-07-08T09:55:17.048Z,220
2017-07-08T09:56:16.080Z,215
2017-07-08T09:57:15.439Z,205
2017-07-08T09:58:15.796Z,205
2017-07-08T09:59:15.590Z,185
2017-07-08T10:00:16.426Z,160
2017-07-08T10:01:15.817Z,145
2017-07-08T10:02:15.534Z,140
2017-07-08T10:03:15.865Z,140
2017-07-08T10:04:15.800Z,150
2017-07-08T10:05:17.097Z,160
2017-07-08T10:06:19.132Z,170
2017-07-08T10:07:15.522Z,175
2017-07-08T10:08:15.836Z,180
2017-07-08T10:09:16.171Z,185
2017-07-08T10:10:17.669Z,180
2017-07-08T10:11:15.563Z,190
2017-07-08T10:12:16.190Z,260
2017-07-08T10:13:15.238Z,255
2017-07-08T10:14:15.233Z,270
2017-07-08T10:15:17.612Z,270
2017-07-08T10:16:15.900Z,265
2017-07-08T10:17:15.903Z,260
2017-07-08T10:18:15.276Z,240
2017-07-08T10:19:15.341Z,200
2017-07-08T10:20:17.064Z,210
2017-07-08T10:21:16.258Z,235
2017-07-08T10:22:18.647Z,215
2017-07-08T10:23:15.628Z,215
2017-07-08T10:24:16.305Z,285
2017-07-08T10:25:16.920Z,270
2017-07-08T10:26:16.421Z,270
2017-07-08T10:27:15.709Z,250
2017-07-08T10:28:16.314Z,230
2017-07-08T10:29:15.709Z,205
2017-07-08T10:30:17.411Z,225
2017-07-08T10:31:16.019Z,190
2017-07-08T10:32:16.051Z,185
2017-07-08T10:33:15.426Z,180
2017-07-08T10:34:15.482Z,185
2017-07-08T10:35:17.262Z,185
2017-07-08T10:36:16.079Z,200
2017-07-08T10:37:16.552Z,210
2017-07-08T10:38:15.464Z,220
2017-07-08T10:39:15.780Z,230
2017-07-08T10:40:16.513Z,300
2017-07-08T10:41:15.475Z,300
2017-07-08T10:42:16.139Z,285
2017-07-08T10:43:16.145Z,275
2017-07-08T10:44:16.463Z,270
2017-07-08T10:45:17.824Z,265
2017-07-08T10:46:15.870Z,265
2017-07-08T10:47:15.527Z,250
2017-07-08T10:48:17.553Z,265
2017-07-08T10:49:16.679Z,260
2017-07-08T10:50:17.746Z,260
2017-07-08T10:51:16.720Z,265
2017-07-08T10:52:19.578Z,280
2017-07-08T10:53:17.619Z,275
2017-07-08T10:54:17.645Z,275
2017-07-08T10:55:17.511Z,280
2017-07-08T10:56:17.594Z,295
2017-07-08T10:57:16.256Z,300
2017-07-08T10:58:15.983Z,305
2017-07-08T10:59:15.613Z,310
2017-07-08T11:00:17.895Z,325
2017-07-08T11:01:16.004Z,325
2017-07-08T11:02:16.034Z,325
2017-07-08T11:03:16.340Z,335
2017-07-08T11:04:16.283Z,345
2017-07-08T11:05:17.374Z,350
2017-07-08T11:06:16.330Z,355
2017-07-08T11:07:16.643Z,355
2017-07-08T11:08:16.006Z,345
2017-07-08T11:09:16.014Z,345
2017-07-08T11:10:18.264Z,305
2017-07-08T11:11:16.351Z,335
2017-07-08T11:12:16.356Z,370
2017-07-08T11:13:16.062Z,365
2017-07-08T11:14:15.751Z,360
2017-07-08T11:15:16.975Z,355
2017-07-08T11:16:15.769Z,350
2017-07-08T11:17:16.081Z,345
2017-07-08T11:18:16.115Z,335
2017-07-08T11:19:16.427Z,300
2017-07-08T11:20:17.468Z,285
2017-07-08T11:21:16.117Z,260
2017-07-08T11:22:15.811Z,255
2017-07-08T11:23:19.806Z,245
2017-07-08T11:24:16.190Z,245
2017-07-08T11:25:42.339Z,240
2017-07-08T11:26:16.482Z,235
2017-07-08T11:27:16.820Z,225
2017-07-08T11:28:16.508Z,220
2017-07-08T11:29:16.213Z,210
2017-07-08T11:30:17.584Z,200
2017-07-08T11:31:16.531Z,185
2017-07-08T11:32:15.916Z,175
2017-07-08T11:33:16.862Z,165
2017-07-08T11:34:15.929Z,155
2017-07-08T11:35:17.761Z,150
2017-07-08T11:36:16.939Z,135
2017-07-08T11:37:15.946Z,130
2017-07-08T11:38:18.655Z,135
2017-07-08T11:39:16.593Z,145
2017-07-08T11:40:17.198Z,155
2017-07-08T11:41:16.397Z,180
2017-07-08T11:42:16.627Z,195
2017-07-08T11:43:16.338Z,200
2017-07-08T11:44:16.702Z,200
2017-07-08T11:45:18.492Z,200
2017-07-08T11:46:16.404Z,200
2017-07-08T11:47:16.046Z,195
2017-07-08T11:48:16.358Z,195
2017-07-08T11:49:16.697Z,195
2017-07-08T11:50:17.978Z,180
2017-07-08T11:51:16.711Z,180
2017-07-08T11:52:16.744Z,175
2017-07-08T11:53:16.319Z,170
2017-07-08T11:54:16.426Z,160
2017-07-08T11:55:17.935Z,145
2017-07-08T11:56:16.788Z,140
2017-07-08T11:57:16.758Z,130
2017-07-08T11:58:16.766Z,125
2017-07-08T11:59:16.821Z,125
2017-07-08T12:00:17.957Z,125
2017-07-08T12:01:16.814Z,125
2017-07-08T12:02:16.140Z,130
2017-07-08T12:03:16.786Z,135
2017-07-08T12:04:17.145Z,145
2017-07-08T12:05:17.780Z,155
2017-07-08T12:06:16.811Z,170
2017-07-08T12:07:16.827Z,190
2017-07-08T12:08:18.213Z,210
2017-07-08T12:09:16.850Z,255
2017-07-08T12:10:18.322Z,275
2017-07-08T12:11:16.216Z,300
2017-07-08T12:12:15.904Z,290
2017-07-08T12:13:16.555Z,335
2017-07-08T12:14:16.571Z,315
2017-07-08T12:15:17.767Z,340
2017-07-08T12:16:16.574Z,350
2017-07-08T12:17:16.908Z,345
2017-07-08T12:18:16.610Z,365
2017-07-08T12:19:17.085Z,360
2017-07-08T12:20:18.147Z,355
2017-07-08T12:21:16.630Z,340
2017-07-08T12:22:16.976Z,315
2017-07-08T12:23:16.670Z,295
2017-07-08T12:24:20.945Z,255
2017-07-08T12:25:17.704Z,240
2017-07-08T12:26:16.338Z,235
2017-07-08T12:27:16.662Z,235
2017-07-08T12:28:16.359Z,230
2017-07-08T12:29:17.049Z,220
2017-07-08T12:30:18.371Z,215
2017-07-08T12:31:16.707Z,210
2017-07-08T12:32:16.719Z,205
2017-07-08T12:33:16.720Z,200
2017-07-08T12:34:16.724Z,190
2017-07-08T12:35:17.958Z,190
2017-07-08T12:36:17.408Z,190
2017-07-08T12:37:16.753Z,195
2017-07-08T12:38:17.414Z,200
2017-07-08T12:39:17.818Z,190
2017-07-08T12:40:18.823Z,185
2017-07-08T12:41:16.531Z,195
2017-07-08T12:42:17.449Z,205
2017-07-08T12:43:17.138Z,215
2017-07-08T12:44:16.171Z,220
2017-07-08T12:45:18.770Z,220
2017-07-08T12:46:16.815Z,220
2017-07-08T12:47:16.831Z,220
2017-07-08T12:48:17.356Z,220
2017-07-08T12:49:16.532Z,215
2017-07-08T12:50:17.977Z,215
2017-07-08T12:51:16.884Z,210
2017-07-08T12:52:16.930Z,205
2017-07-08T12:53:16.897Z,200
2017-07-08T12:54:20.102Z,190
2017-07-08T12:55:18.192Z,185
2017-07-08T12:56:16.604Z,175
2017-07-08T12:57:16.958Z,170
2017-07-08T12:58:17.262Z,160
2017-07-08T12:59:17.265Z,150
2017-07-08T13:00:18.734Z,145
2017-07-08T13:01:16.663Z,145
2017-07-08T13:02:17.629Z,145
2017-07-08T13:03:17.009Z,150
2017-07-08T13:04:17.061Z,155
2017-07-08T13:05:18.554Z,155
2017-07-08T13:06:16.677Z,155
2017-07-08T13:07:16.689Z,160
2017-07-08T13:08:16.694Z,165
2017-07-08T13:09:17.381Z,175
2017-07-08T13:10:18.833Z,185
2017-07-08T13:11:17.379Z,195
2017-07-08T13:12:17.412Z,200
2017-07-08T13:13:17.730Z,210
2017-07-08T13:14:17.071Z,220
2017-07-08T13:15:18.209Z,230
2017-07-08T13:16:17.407Z,260
2017-07-08T13:17:17.091Z,310
2017-07-08T13:18:17.746Z,320
2017-07-08T13:19:17.474Z,310
2017-07-08T13:20:18.493Z,265
2017-07-08T13:21:17.135Z,245
2017-07-08T13:22:17.145Z,230
2017-07-08T13:23:16.840Z,225
2017-07-08T13:24:17.779Z,215
2017-07-08T13:25:23.241Z,205
2017-07-08T13:26:17.506Z,200
2017-07-08T13:27:16.861Z,195
2017-07-08T13:28:17.864Z,190
2017-07-08T13:29:17.515Z,190
2017-07-08T13:30:17.708Z,185
2017-07-08T13:31:17.519Z,185
2017-07-08T13:32:17.905Z,190
2017-07-08T13:33:16.901Z,190
2017-07-08T13:34:17.542Z,195
2017-07-08T13:35:18.736Z,190
2017-07-08T13:36:17.566Z,190
2017-07-08T13:37:17.242Z,180
2017-07-08T13:38:17.902Z,180
2017-07-08T13:39:17.251Z,175
2017-07-08T13:40:18.730Z,175
2017-07-08T13:41:17.292Z,175
2017-07-08T13:42:17.602Z,180
2017-07-08T13:43:17.617Z,180
2017-07-08T13:44:17.295Z,180
2017-07-08T13:45:18.881Z,190
2017-07-08T13:46:17.313Z,195
2017-07-08T13:47:17.355Z,200
2017-07-08T13:48:17.432Z,200
2017-07-08T13:49:17.335Z,195
2017-07-08T13:50:18.463Z,195
2017-07-08T13:51:17.047Z,200
2017-07-08T13:52:17.676Z,200
2017-07-08T13:53:17.370Z,195
2017-07-08T13:54:17.731Z,220
2017-07-08T13:55:20.830Z,220
2017-07-08T13:56:17.703Z,225
2017-07-08T13:57:18.085Z,220
2017-07-08T13:58:17.730Z,220
2017-07-08T13:59:17.130Z,220
2017-07-08T14:00:18.859Z,230
2017-07-08T14:01:17.429Z,230
2017-07-08T14:02:17.758Z,230
2017-07-08T14:03:17.767Z,235
2017-07-08T14:04:18.141Z,230
2017-07-08T14:05:18.143Z,230
2017-07-08T14:06:18.135Z,225
2017-07-08T14:07:17.896Z,220
2017-07-08T14:08:17.485Z,225
2017-07-08T14:09:17.486Z,220
2017-07-08T14:10:19.248Z,220
2017-07-08T14:11:17.583Z,220
2017-07-08T14:12:17.862Z,215
2017-07-08T14:13:17.899Z,215
2017-07-08T14:14:17.850Z,210
2017-07-08T14:15:19.234Z,210
2017-07-08T14:16:19.206Z,205
2017-07-08T14:17:17.555Z,195
2017-07-08T14:18:17.897Z,190
2017-07-08T14:19:17.642Z,200
2017-07-08T14:20:18.789Z,200
2017-07-08T14:21:17.660Z,200
2017-07-08T14:22:17.938Z,205
2017-07-08T14:23:17.918Z,205
2017-07-08T14:24:17.318Z,205
2017-07-08T14:25:19.507Z,205
2017-07-08T14:26:17.736Z,205
2017-07-08T14:27:18.067Z,205
2017-07-08T14:28:17.990Z,210
2017-07-08T14:29:18.000Z,210
2017-07-08T14:30:18.764Z,215
2017-07-08T14:31:17.681Z,220
2017-07-08T14:32:18.345Z,225
2017-07-08T14:33:18.118Z,230
2017-07-08T14:34:17.680Z,235
2017-07-08T14:35:19.461Z,240
2017-07-08T14:36:17.077Z,240
2017-07-08T14:37:18.072Z,245
2017-07-08T14:38:17.406Z,250
2017-07-08T14:39:17.747Z,260
2017-07-08T14:40:19.634Z,270
2017-07-08T14:41:19.116Z,275
2017-07-08T14:42:17.781Z,275
2017-07-08T14:43:18.408Z,275
2017-07-08T14:44:18.085Z,270
2017-07-08T14:45:19.923Z,270
2017-07-08T14:46:18.197Z,265
2017-07-08T14:47:18.176Z,260
2017-07-08T14:48:17.491Z,255
2017-07-08T14:49:18.465Z,250
2017-07-08T14:50:19.279Z,250
2017-07-08T14:51:17.840Z,255
2017-07-08T14:52:17.841Z,250
2017-07-08T14:53:18.488Z,225
2017-07-08T14:54:17.864Z,225
2017-07-08T14:55:19.519Z,230
2017-07-08T14:56:22.305Z,235
2017-07-08T14:57:18.362Z,240
2017-07-08T14:58:17.873Z,245
2017-07-08T14:59:17.888Z,245
2017-07-08T15:00:19.412Z,245
2017-07-08T15:01:17.988Z,240
2017-07-08T15:02:18.243Z,255
2017-07-08T15:03:18.263Z,295
2017-07-08T15:04:17.928Z,295
2017-07-08T15:05:19.443Z,290
2017-07-08T15:06:17.963Z,275
2017-07-08T15:07:17.970Z,260
2017-07-08T15:08:17.971Z,250
2017-07-08T15:09:18.615Z,245
2017-07-08T15:10:19.883Z,255
2017-07-08T15:11:19.042Z,270
2017-07-08T15:12:18.367Z,265
2017-07-08T15:13:17.682Z,260
2017-07-08T15:14:18.663Z,260
2017-07-08T15:44:38.568Z,200
2017-07-08T15:45:36.182Z,200
2017-07-08T15:46:35.863Z,180
2017-07-08T15:47:36.524Z,180
2017-07-08T15:48:36.834Z,165
2017-07-08T15:49:36.534Z,165
2017-07-08T15:50:36.520Z,190
2017-07-08T15:51:36.210Z,175
2017-07-08T15:52:36.546Z,195
2017-07-08T15:53:36.549Z,195
2017-07-08T15:54:36.232Z,195
2017-07-08T15:55:36.560Z,165
2017-07-08T15:56:36.564Z,155
2017-07-08T15:57:36.584Z,150
2017-07-08T15:58:36.252Z,145
2017-07-08T15:59:40.338Z,155
2017-07-08T16:00:36.269Z,170
2017-07-08T16:01:36.285Z,165
2017-07-08T16:02:36.282Z,160
2017-07-08T16:03:36.937Z,160
2017-07-08T16:04:35.992Z,165
2017-07-08T16:05:36.302Z,170
2017-07-08T16:06:36.967Z,170
2017-07-08T16:07:36.644Z,170
2017-07-08T16:08:36.970Z,165
2017-07-08T16:09:36.016Z,160
2017-07-08T16:10:36.679Z,160
2017-07-08T16:11:36.033Z,170
2017-07-08T16:12:37.011Z,165
2017-07-08T16:13:36.710Z,170
2017-07-08T16:14:37.850Z,175
2017-07-08T16:15:36.383Z,180
2017-07-08T16:16:36.089Z,180
2017-07-08T16:17:36.720Z,175
2017-07-08T16:18:35.768Z,175
2017-07-08T16:19:37.052Z,185
2017-07-08T16:20:36.750Z,195
2017-07-08T16:21:36.435Z,200
2017-07-08T16:22:36.120Z,175
2017-07-08T16:23:37.151Z,190
2017-07-08T16:24:36.505Z,195
2017-07-08T16:25:36.456Z,195
2017-07-08T16:26:36.467Z,200
2017-07-08T16:27:36.508Z,200
2017-07-08T16:28:36.807Z,195
2017-07-08T16:29:36.819Z,195
2017-07-08T16:30:38.170Z,190
2017-07-08T16:31:36.837Z,190
2017-07-08T16:32:36.514Z,185
2017-07-08T16:33:36.520Z,185
2017-07-08T16:34:37.181Z,185
2017-07-08T16:35:37.175Z,190
2017-07-08T16:36:36.870Z,190
2017-07-08T16:37:37.200Z,200
2017-07-08T16:38:36.564Z,210
2017-07-08T16:39:36.897Z,215
2017-07-08T16:40:36.911Z,215
2017-07-08T16:41:36.921Z,210
2017-07-08T16:42:36.925Z,200
2017-07-08T16:43:36.608Z,195
2017-07-08T16:44:36.928Z,185
2017-07-08T16:45:38.884Z,185
2017-07-08T16:46:36.647Z,180
2017-07-08T16:47:37.284Z,175
2017-07-08T16:48:36.971Z,175
2017-07-08T16:49:36.988Z,175
2017-07-08T16:50:37.299Z,180
2017-07-08T16:51:37.321Z,185
2017-07-08T16:52:36.994Z,190
2017-07-08T16:53:37.002Z,190
2017-07-08T16:54:37.008Z,190
2017-07-08T16:55:36.698Z,190
2017-07-08T16:56:37.041Z,190
2017-07-08T16:57:37.357Z,190
2017-07-08T16:58:36.731Z,190
2017-07-08T16:59:36.087Z,185
2017-07-08T17:00:38.274Z,180
2017-07-08T17:01:36.769Z,180
2017-07-08T17:02:37.071Z,175
2017-07-08T17:03:37.086Z,175
2017-07-08T17:04:36.445Z,175
2017-07-08T17:05:36.783Z,175
2017-07-08T17:06:36.782Z,175
2017-07-08T17:07:36.472Z,180
2017-07-08T17:08:36.802Z,180
2017-07-08T17:09:37.132Z,175
2017-07-08T17:10:37.146Z,175
2017-07-08T17:11:36.826Z,175
2017-07-08T17:12:37.478Z,175
2017-07-08T17:13:36.840Z,175
2017-07-08T17:14:36.847Z,175
2017-07-08T17:15:38.433Z,180
2017-07-08T17:16:37.185Z,180
2017-07-08T17:17:37.194Z,180
2017-07-08T17:18:37.534Z,180
2017-07-08T17:19:37.212Z,180
2017-07-08T17:20:37.546Z,180
2017-07-08T17:21:37.554Z,180
2017-07-08T17:22:36.593Z,185
2017-07-08T17:23:37.242Z,180
2017-07-08T17:24:37.250Z,180
2017-07-08T17:25:36.944Z,175
2017-07-08T17:26:36.638Z,170
2017-07-08T17:27:36.957Z,175
2017-07-08T17:28:37.286Z,175
2017-07-08T17:29:36.977Z,170
2017-07-08T17:30:36.977Z,155
2017-07-08T17:31:39.544Z,155
2017-07-08T17:32:36.998Z,150
2017-07-08T17:33:37.021Z,150
2017-07-08T17:34:36.693Z,150
2017-07-08T17:35:37.014Z,150
2017-07-08T17:36:37.341Z,150
2017-07-08T17:37:37.035Z,155
2017-07-08T17:38:37.685Z,155
2017-07-08T17:39:37.055Z,155
2017-07-08T17:40:36.735Z,155
2017-07-08T17:41:37.394Z,150
2017-07-08T17:42:37.390Z,140
2017-07-08T17:43:37.720Z,135
2017-07-08T17:44:37.734Z,130
2017-07-08T17:45:37.747Z,125
2017-07-08T17:46:37.357Z,125
2017-07-08T17:47:36.869Z,120
2017-07-08T17:48:37.522Z,120
2017-07-08T17:49:37.771Z,115
2017-07-08T17:50:36.810Z,115
2017-07-08T17:51:37.346Z,120
2017-07-08T17:52:37.843Z,115
2017-07-08T17:53:37.860Z,120
2017-07-08T17:54:36.844Z,115
2017-07-08T17:55:37.166Z,115
2017-07-08T17:56:37.550Z,110
2017-07-08T17:57:37.182Z,110
2017-07-08T17:58:36.876Z,110
2017-07-08T17:59:37.546Z,105
2017-07-08T18:00:36.901Z,105
2017-07-08T18:01:38.127Z,105
2017-07-08T18:02:37.253Z,105
2017-07-08T18:04:02.747Z,105
2017-07-08T18:04:37.881Z,105
2017-07-08T18:05:36.923Z,105
2017-07-08T18:06:36.930Z,100
2017-07-08T18:07:37.261Z,100
2017-07-08T18:08:36.957Z,100
2017-07-08T18:09:37.618Z,95
2017-07-08T18:10:37.928Z,90
2017-07-08T18:11:37.611Z,85
2017-07-08T18:12:37.951Z,80
2017-07-08T18:13:37.304Z,80
2017-07-08T18:14:37.326Z,75
2017-07-08T18:15:37.324Z,75
2017-07-08T18:16:37.340Z,75
2017-07-08T18:17:39.935Z,75
2017-07-08T18:18:37.667Z,75
2017-07-08T18:19:37.029Z,75
2017-07-08T18:20:37.694Z,70
2017-07-08T18:21:37.043Z,70
2017-07-08T18:22:37.687Z,70
2017-07-08T18:23:38.017Z,70
2017-07-08T18:24:37.443Z,70
2017-07-08T18:25:37.139Z,70
2017-07-08T18:26:37.099Z,70
2017-07-08T18:27:37.151Z,70
2017-07-08T18:28:38.103Z,65
2017-07-08T18:29:36.900Z,65
2017-07-08T18:30:37.855Z,60
2017-07-08T18:31:37.756Z,60
2017-07-08T18:32:37.928Z,60
2017-07-08T18:33:37.780Z,60
2017-07-08T18:34:37.776Z,55
2017-07-08T18:35:37.472Z,55
2017-07-08T18:36:37.809Z,55
2017-07-08T18:37:37.177Z,55
2017-07-08T18:38:37.179Z,50
2017-07-08T18:39:37.528Z,50
2017-07-08T18:40:37.930Z,50
2017-07-08T18:41:37.905Z,50
2017-07-08T18:42:37.267Z,50
2017-07-08T18:43:38.181Z,45
2017-07-08T18:44:37.849Z,45
2017-07-08T18:45:37.907Z,45
2017-07-08T18:46:37.588Z,45
2017-07-08T18:47:38.436Z,45
2017-07-08T18:48:36.936Z,50
2017-07-08T18:49:37.574Z,45
2017-07-08T18:50:37.573Z,45
2017-07-08T18:51:36.940Z,45
2017-07-08T18:52:37.268Z,45
2017-07-08T18:53:37.599Z,40
2017-07-08T18:54:37.994Z,40
2017-07-08T18:55:37.996Z,35
2017-07-08T18:56:37.939Z,35
2017-07-08T18:57:37.996Z,35
2017-07-08T18:58:37.631Z,30
2017-07-08T18:59:37.733Z,30
2017-07-08T19:00:37.356Z,30
2017-07-08T19:01:37.360Z,25
2017-07-08T19:02:37.626Z,25
2017-07-08T19:03:37.977Z,25
2017-07-08T19:04:37.989Z,20
2017-07-08T19:05:37.686Z,20
2017-07-08T19:06:37.745Z,20
2017-07-08T19:07:37.365Z,20
2017-07-08T19:08:37.374Z,20
2017-07-08T19:09:37.704Z,15
2017-07-08T19:10:38.341Z,15
2017-07-08T19:11:37.390Z,15
2017-07-08T19:12:38.113Z,15
2017-07-08T19:13:38.372Z,15
2017-07-08T19:14:37.732Z,10
2017-07-08T19:15:37.745Z,10
2017-07-08T19:16:38.163Z,10
2017-07-08T19:17:39.938Z,10
2017-07-08T19:18:38.460Z,10
2017-07-08T19:19:37.771Z,10
2017-07-08T19:20:37.772Z,5
2017-07-08T19:21:38.094Z,5
2017-07-08T19:22:37.451Z,5
2017-07-08T19:23:37.491Z,5
2017-07-08T19:24:38.503Z,5
2017-07-08T19:25:37.802Z,5
2017-07-08T19:26:38.485Z,5
2017-07-08T19:27:37.817Z,5
2017-07-08T19:28:37.823Z,5
2017-07-08T19:29:37.180Z,5
2017-07-08T19:30:37.832Z,5
2017-07-08T19:31:38.164Z,5
2017-07-08T19:32:41.525Z,0
2017-07-08T19:33:38.198Z,0
2017-07-08T19:34:37.872Z,0
2017-07-08T19:35:37.876Z,0
2017-07-08T19:36:38.209Z,0
2017-07-08T19:37:37.871Z,0
2017-07-08T19:38:37.562Z,0
2017-07-08T19:39:38.231Z,0
2017-07-08T19:40:37.961Z,0
2017-07-08T19:41:38.541Z,0
2017-07-08T19:42:38.550Z,0
2017-07-08T19:43:38.245Z,0
2017-07-08T19:44:38.246Z,0
2017-07-08T19:45:37.954Z,0
2017-07-08T19:46:38.251Z,0
2017-07-08T19:47:37.948Z,0
2017-07-08T19:48:41.026Z,0
2017-07-08T19:49:37.687Z,0
2017-07-08T19:50:37.976Z,0
2017-07-08T19:51:38.007Z,0
2017-07-08T19:52:38.028Z,0
2017-07-08T19:53:38.013Z,0
2017-07-08T19:54:37.999Z,0
2017-07-08T19:55:37.660Z,0
2017-07-08T19:56:37.993Z,0
2017-07-08T19:57:38.318Z,0
2017-07-08T19:58:37.924Z,0
2017-07-08T19:59:38.712Z,0
2017-07-08T20:00:38.404Z,0
2017-07-08T20:01:38.456Z,0
2017-07-08T20:02:37.775Z,0
2017-07-08T20:03:38.980Z,0
2017-07-08T20:04:38.690Z,0
2017-07-08T20:05:38.431Z,0
2017-07-08T20:06:38.382Z,0
2017-07-08T20:07:38.412Z,0
2017-07-08T20:08:38.225Z,0
2017-07-08T20:09:38.695Z,0
2017-07-08T20:10:38.418Z,0
2017-07-08T20:11:37.791Z,0
2017-07-08T20:12:38.234Z,0
2017-07-08T20:13:38.457Z,0
2017-07-08T20:14:38.478Z,0
2017-07-08T20:15:37.505Z,0
2017-07-08T20:16:37.840Z,0
2017-07-08T20:17:37.867Z,0
2017-07-08T20:18:39.034Z,0
2017-07-08T20:19:38.240Z,0
